Stations météo

Publicité
Aix en Provence, France (7654): Température de l'air & dewpoint: 05.12.2019 13:00:00 - 11.12.2019 13:00:00 (CET)Aix en Provence, France (7654): Vitesse du vent & gusts: 05.12.2019 13:00:00 - 11.12.2019 13:00:00 (CET)Aix en Provence, France (7654): Direction du vent: 05.12.2019 13:00:00 - 11.12.2019 13:00:00 (CET)Aix en Provence, France (7654): Quantités de précipitations: 05.12.2019 13:00:00 - 11.12.2019 13:00:00 (CET)
Date & Time tt [°C] td [°C] ff [km/h] ff [knt] fx [km/h] fx [knt] dd rr [mm]
11.12.2019 13:00:00 - - - - - - - -
11.12.2019 12:00:00 8,6 1,7 4 2 8 4 E 0,0
11.12.2019 11:00:00 7,4 0,1 4 2 11 6 SE 0,0
11.12.2019 10:00:00 6,1 -0,9 4 2 11 6 ESE 0,0
11.12.2019 09:00:00 4,9 -0,9 2 1 8 4 SE 0,0
11.12.2019 08:00:00 4,4 -1,2 2 1 9 5 ESE 0,0
11.12.2019 07:00:00 1,1 -1,0 4 2 8 4 ESE -
11.12.2019 06:00:00 0,1 -2,0 0 0 8 4 N 0,0
11.12.2019 05:00:00 0,1 -2,4 0 0 8 4 N 0,0
11.12.2019 04:00:00 0,8 -2,6 2 1 8 4 ENE 0,0
11.12.2019 03:00:00 2,2 -3,1 5 3 13 7 E 0,0
11.12.2019 02:00:00 3,8 -3,3 8 4 15 8 E 0,0
11.12.2019 01:00:00 3,4 -2,8 4 2 18 10 ESE -
11.12.2019 00:00:00 3,0 -2,3 5 3 11 6 E 0,0
10.12.2019 23:00:00 0,4 -1,0 0 0 5 3 N 0,0
10.12.2019 22:00:00 0,7 -1,1 0 0 4 2 N 0,0
10.12.2019 21:00:00 1,8 -0,5 4 2 5 3 SE 0,0
10.12.2019 20:00:00 3,2 -0,1 2 1 8 4 WNW 0,0
10.12.2019 19:00:00 4,2 0,0 5 3 9 5 NNW -
10.12.2019 18:00:00 5,2 0,8 0 0 5 3 N 0,0
10.12.2019 17:00:00 7,0 0,0 4 2 16 9 W 0,0
10.12.2019 16:00:00 8,8 0,0 4 2 22 12 WNW 0,0
10.12.2019 15:00:00 10,1 0,4 4 2 22 12 WSW 0,0
10.12.2019 14:00:00 11,5 -2,3 11 6 35 19 WNW 0,0
10.12.2019 13:00:00 12,5 -1,8 11 6 31 17 NW -
10.12.2019 12:00:00 11,4 -2,4 11 6 34 18 NW 0,0
10.12.2019 11:00:00 10,9 -1,2 13 7 41 22 S 0,0
10.12.2019 10:00:00 11,4 -8,0 15 8 41 22 N 0,0
10.12.2019 09:00:00 8,8 -4,4 9 5 48 26 N 0,0
10.12.2019 08:00:00 8,4 -3,5 22 12 50 27 N 0,0
10.12.2019 07:00:00 7,8 -2,3 16 9 35 19 NW -
10.12.2019 06:00:00 7,1 -1,1 15 8 29 16 NW 0,0
10.12.2019 05:00:00 6,6 -0,6 9 5 28 15 WNW 0,0
10.12.2019 04:00:00 7,1 -0,4 11 6 34 18 NW 0,0
10.12.2019 03:00:00 7,2 -0,5 13 7 42 23 NNW 0,0
10.12.2019 02:00:00 7,2 -0,5 22 12 57 31 NW 0,0
10.12.2019 01:00:00 7,4 -0,3 15 8 63 34 NNW -
10.12.2019 00:00:00 7,3 1,4 29 16 72 39 NW 0,0
09.12.2019 23:00:00 7,9 1,7 24 13 68 37 NW 0,0
09.12.2019 22:00:00 8,6 1,9 22 12 70 38 NW 0,0
09.12.2019 21:00:00 9,4 2,0 21 11 67 36 NW 0,0
09.12.2019 20:00:00 9,0 2,5 13 7 29 16 WNW 0,0
09.12.2019 19:00:00 9,4 3,1 8 4 18 10 WNW -
09.12.2019 18:00:00 10,5 3,1 9 5 24 13 NW 0,0
09.12.2019 17:00:00 11,4 3,2 9 5 41 22 WNW 0,0
09.12.2019 16:00:00 13,3 3,4 18 10 39 21 WNW 0,0
09.12.2019 15:00:00 12,7 3,6 18 10 41 22 WNW 0,0
09.12.2019 14:00:00 13,0 3,9 18 10 44 24 WNW 0,0
09.12.2019 13:00:00 13,2 5,1 18 10 35 19 W -
09.12.2019 12:00:00 12,6 6,2 15 8 28 15 W 0,0
09.12.2019 11:00:00 11,3 6,0 13 7 26 14 W 0,0
09.12.2019 10:00:00 9,4 6,1 4 2 9 5 W 0,0
09.12.2019 09:00:00 6,3 5,4 2 1 8 4 E 0,0
09.12.2019 08:00:00 5,3 4,6 5 3 11 6 W 0,0
09.12.2019 07:00:00 5,6 4,9 4 2 13 7 W -
09.12.2019 06:00:00 6,5 5,8 4 2 13 7 NW 0,0
09.12.2019 05:00:00 8,0 6,9 8 4 26 14 WNW 0,0
09.12.2019 04:00:00 9,0 8,5 13 7 26 14 WNW 0,0
09.12.2019 03:00:00 8,3 7,9 4 2 5 3 WSW 0,0
09.12.2019 02:00:00 8,2 7,8 0 0 4 2 N 0,0
09.12.2019 01:00:00 7,8 7,4 0 0 4 2 N -
09.12.2019 00:00:00 7,0 6,4 0 0 5 3 N 0,4
08.12.2019 23:00:00 6,7 6,1 0 0 4 2 N 0,2
08.12.2019 22:00:00 5,5 5,1 0 0 2 1 N 0,0
08.12.2019 21:00:00 4,7 4,1 2 1 4 2 N 0,0
08.12.2019 20:00:00 5,2 4,3 0 0 2 1 N 0,0
08.12.2019 19:00:00 6,0 4,8 0 0 2 1 N -
08.12.2019 18:00:00 7,5 5,5 0 0 4 2 N 0,0
08.12.2019 17:00:00 10,7 5,9 2 1 13 7 W 0,0
08.12.2019 16:00:00 13,3 5,7 8 4 22 12 W 0,0
08.12.2019 15:00:00 13,5 5,9 8 4 16 9 W 0,0
08.12.2019 14:00:00 14,2 5,5 5 3 11 6 S 0,0
08.12.2019 13:00:00 13,2 4,9 4 2 9 5 SW -
08.12.2019 12:00:00 11,8 4,7 2 1 8 4 SSW 0,0
08.12.2019 11:00:00 10,2 5,2 2 1 4 2 SSW 0,0
08.12.2019 10:00:00 5,3 4,4 0 0 2 1 N 0,0
08.12.2019 09:00:00 2,6 2,5 4 2 8 4 S 0,0
08.12.2019 08:00:00 1,0 0,6 0 0 4 2 N 0,0
08.12.2019 07:00:00 1,7 1,4 0 0 8 4 N -
08.12.2019 06:00:00 1,3 0,9 0 0 8 4 N 0,0
08.12.2019 05:00:00 1,8 1,4 0 0 5 3 N 0,0
08.12.2019 04:00:00 2,1 1,7 0 0 5 3 N 0,0
08.12.2019 03:00:00 2,3 1,9 0 0 4 2 N 0,0
08.12.2019 02:00:00 2,8 2,4 0 0 5 3 N 0,0
08.12.2019 01:00:00 2,9 2,3 0 0 8 4 N -
08.12.2019 00:00:00 3,8 3,4 0 0 8 4 N 0,0
07.12.2019 23:00:00 3,5 2,9 0 0 5 3 N 0,0
07.12.2019 22:00:00 4,3 3,7 4 2 5 3 N 0,0
07.12.2019 21:00:00 4,5 3,6 0 0 5 3 N 0,0
07.12.2019 20:00:00 5,3 4,1 2 1 5 3 NNW 0,0
07.12.2019 19:00:00 6,1 4,4 0 0 4 2 N -
07.12.2019 18:00:00 7,9 5,7 0 0 5 3 N 0,0
07.12.2019 17:00:00 11,0 6,5 2 1 15 8 SW 0,0
07.12.2019 16:00:00 13,7 6,8 8 4 18 10 W 0,0
07.12.2019 15:00:00 13,7 6,3 11 6 22 12 W 0,0
07.12.2019 14:00:00 13,8 6,4 11 6 18 10 W 0,0
07.12.2019 13:00:00 13,3 6,9 5 3 13 7 SW -
07.12.2019 12:00:00 12,0 6,3 8 4 13 7 W 0,0
07.12.2019 11:00:00 10,9 6,6 0 0 5 3 N 0,0
07.12.2019 10:00:00 8,0 4,9 2 1 4 2 S 0,0
07.12.2019 09:00:00 3,2 2,9 0 0 4 2 N 0,0
07.12.2019 08:00:00 1,7 1,3 0 0 4 2 N 0,0
07.12.2019 07:00:00 1,7 1,3 0 0 4 2 N -
07.12.2019 06:00:00 1,7 1,1 0 0 2 1 N 0,2
07.12.2019 05:00:00 1,9 1,3 0 0 4 2 N 0,0
07.12.2019 04:00:00 2,1 1,5 0 0 4 2 N 0,0
07.12.2019 03:00:00 2,5 2,1 0 0 2 1 N 0,0
07.12.2019 02:00:00 2,0 1,4 0 0 0 0 N 0,0
07.12.2019 01:00:00 2,4 1,5 0 0 2 1 N -
07.12.2019 00:00:00 2,9 1,9 0 0 2 1 N 0,0
06.12.2019 23:00:00 3,6 2,4 0 0 2 1 N 0,0
06.12.2019 22:00:00 4,3 2,8 0 0 2 1 N 0,0
06.12.2019 21:00:00 4,8 2,8 0 0 2 1 N 0,0
06.12.2019 20:00:00 6,0 3,3 0 0 2 1 N 0,0
06.12.2019 19:00:00 6,8 3,8 0 0 2 1 N -
06.12.2019 18:00:00 8,5 4,3 0 0 5 3 N 0,0
06.12.2019 17:00:00 12,4 4,1 4 2 9 5 NNW 0,0
06.12.2019 16:00:00 15,9 1,6 8 4 11 6 WNW 0,0
06.12.2019 15:00:00 15,5 1,6 4 2 16 9 NNW 0,0
06.12.2019 14:00:00 16,3 4,0 5 3 15 8 W 0,0
06.12.2019 13:00:00 16,5 6,0 4 2 8 4 WSW -
06.12.2019 12:00:00 15,3 4,9 2 1 5 3 ESE 0,0
06.12.2019 11:00:00 13,3 3,6 5 3 13 7 E 0,0
06.12.2019 10:00:00 11,6 3,4 4 2 13 7 NNE 0,0
06.12.2019 09:00:00 9,3 2,8 8 4 13 7 ENE 0,0
06.12.2019 08:00:00 8,0 2,9 4 2 18 10 E 0,0
06.12.2019 07:00:00 8,1 3,0 11 6 22 12 NNE -
06.12.2019 06:00:00 8,5 5,2 2 1 13 7 ENE 0,0
06.12.2019 05:00:00 8,4 4,0 5 3 13 7 NE 0,0
06.12.2019 04:00:00 8,7 5,1 4 2 15 8 NE 0,0
06.12.2019 03:00:00 8,3 6,8 2 1 8 4 ENE 0,4
06.12.2019 02:00:00 8,7 7,3 2 1 8 4 NE 0,4
06.12.2019 01:00:00 8,8 6,9 4 2 15 8 ENE -
06.12.2019 00:00:00 10,4 6,5 4 2 15 8 E 0,6
05.12.2019 23:00:00 10,1 6,2 8 4 26 14 NE 0,2
05.12.2019 22:00:00 10,1 5,9 8 4 13 7 NE 0,4
05.12.2019 21:00:00 11,1 5,2 2 1 9 5 SSE 0,0
05.12.2019 20:00:00 11,7 3,5 4 2 18 10 NE 0,0
05.12.2019 19:00:00 11,4 3,4 8 4 15 8 NE -
05.12.2019 18:00:00 11,7 2,7 5 3 16 9 NE 0,0
05.12.2019 17:00:00 11,7 2,7 8 4 18 10 NE 0,0
05.12.2019 16:00:00 12,2 3,2 8 4 18 10 NNE 0,0
05.12.2019 15:00:00 12,3 4,0 4 2 18 10 N 0,0
05.12.2019 14:00:00 12,6 3,5 5 3 13 7 NNE 0,0
05.12.2019 13:00:00 12,8 4,0 4 2 15 8 N -

tt = Température de l'air
td = dewpoint
ff = Vitesse du vent
fx = gusts
dd = Direction du vent
rr = Quantités de précipitations

stations d'obs. à proximité